^^
Station Historical Data
 
Daily Summary for October 30, 2014 Units:  Metric    English   Both
« Previous Day
Next Day »
Daily Weekly Monthly Yearly Custom
  Current: High: Low: Average:
Temperature: 12.2 °C 13.4 °C 5.1 °C 8.6 °C
Dew Point: 9.4 °C 10.2 °C 4.4 °C 7.3 °C
Humidity: 83% 97% 75% 92%
Wind Speed: 0.0km/h 2.4km/h 0.0km/h 0.1km/h
Wind Gust: 0.0km/h 6.4km/h - -
WindCalm - - WNW
Pressure: 1025.3 hPa 1026.0 hPa 1022.2 hPa -
Precipitation: 0.0 mm      
Historical Graphs
 
 
Tabular Data for October 30, 2014
Time Temperature Dew Point Pressure Wind Wind Speed Wind Gust Humidity Rainfall Rate (Hourly) solar Conditions
00:00 6.2 °C 5.3 °C 1022.2 hPa Calm     94% 0.0 mm 0 W/m2
00:05 6.2 °C 5.3 °C 1022.2 hPa Calm     94% 0.0 mm 0 W/m2
00:10 6.2 °C 5.3 °C 1022.2 hPa Calm     94% 0.0 mm 0 W/m2
00:15 6.1 °C 5.2 °C 1022.2 hPa Calm     94% 0.0 mm 0 W/m2
00:20 6.1 °C 5.2 °C 1022.2 hPa Calm     94% 0.0 mm 0 W/m2
00:25 6.1 °C 5.2 °C 1022.2 hPa Calm     94% 0.0 mm 0 W/m2
00:30 6.0 °C 5.1 °C 1022.2 hPa Calm     94% 0.0 mm 0 W/m2
00:35 5.9 °C 5.0 °C 1022.6 hPa Calm     94% 0.0 mm 0 W/m2
00:45 5.9 °C 5.0 °C 1022.6 hPa Calm     94% 0.0 mm 0 W/m2
00:50 5.8 °C 4.9 °C 1022.6 hPa Calm     94% 0.0 mm 0 W/m2
00:55 5.8 °C 4.9 °C 1022.6 hPa Calm     94% 0.0 mm 0 W/m2
01:00 5.7 °C 4.8 °C 1022.6 hPa Calm     94% 0.0 mm 0 W/m2
01:05 5.6 °C 4.7 °C 1022.6 hPa Calm     94% 0.0 mm 0 W/m2
01:10 5.6 °C 4.7 °C 1022.6 hPa Calm   0.5 km/h 94% 0.0 mm 0 W/m2
01:15 5.6 °C 4.9 °C 1022.6 hPa Calm     95% 0.0 mm 0 W/m2
01:20 5.5 °C 4.8 °C 1022.6 hPa Calm     95% 0.0 mm 0 W/m2
01:25 5.5 °C 4.8 °C 1022.6 hPa Calm   1.6 km/h 95% 0.0 mm 0 W/m2
01:30 5.5 °C 4.8 °C 1022.6 hPa Calm   1.6 km/h 95% 0.0 mm 0 W/m2
01:35 5.4 °C 4.7 °C 1022.6 hPa Calm     95% 0.0 mm 0 W/m2
01:40 5.4 °C 4.7 °C 1022.6 hPa Calm     95% 0.0 mm 0 W/m2
01:45 5.4 °C 4.7 °C 1022.6 hPa Calm     95% 0.0 mm 0 W/m2
01:50 5.4 °C 4.7 °C 1022.6 hPa Calm     95% 0.0 mm 0 W/m2
01:55 5.4 °C 4.7 °C 1022.9 hPa Calm     95% 0.0 mm 0 W/m2
02:00 5.4 °C 4.7 °C 1022.9 hPa Calm     95% 0.0 mm 0 W/m2
02:05 5.4 °C 4.7 °C 1022.9 hPa Calm     95% 0.0 mm 0 W/m2
02:10 5.3 °C 4.6 °C 1022.9 hPa Calm     95% 0.0 mm 0 W/m2
02:15 5.3 °C 4.6 °C 1022.9 hPa Calm     95% 0.0 mm 0 W/m2
02:20 5.3 °C 4.6 °C 1022.9 hPa Calm     95% 0.0 mm 0 W/m2
02:25 5.3 °C 4.6 °C 1022.9 hPa Calm     95% 0.0 mm 0 W/m2
02:30 5.3 °C 4.6 °C 1022.9 hPa Calm     95% 0.0 mm 0 W/m2
02:35 5.2 °C 4.4 °C 1022.9 hPa Calm     95% 0.0 mm 0 W/m2
02:40 5.2 °C 4.4 °C 1022.9 hPa Calm     95% 0.0 mm 0 W/m2
02:45 5.2 °C 4.4 °C 1022.9 hPa Calm     95% 0.0 mm 0 W/m2
02:55 5.1 °C 4.4 °C 1022.6 hPa Calm     95% 0.0 mm 0 W/m2
03:00 5.1 °C 4.4 °C 1022.6 hPa Calm     95% 0.0 mm 0 W/m2
03:05 5.1 °C 4.4 °C 1022.6 hPa Calm     95% 0.0 mm 0 W/m2
03:10 5.1 °C 4.4 °C 1022.6 hPa Calm     95% 0.0 mm 0 W/m2
03:15 5.2 °C 4.4 °C 1022.6 hPa Calm     95% 0.0 mm 0 W/m2
03:20 5.2 °C 4.6 °C 1022.9 hPa Calm     96% 0.0 mm 0 W/m2
03:25 5.3 °C 4.7 °C 1022.9 hPa Calm     96% 0.0 mm 0 W/m2
03:30 5.4 °C 4.8 °C 1022.9 hPa Calm     96% 0.0 mm 0 W/m2
03:35 5.6 °C 5.0 °C 1023.2 hPa Calm     96% 0.0 mm 0 W/m2
03:40 5.7 °C 5.1 °C 1022.9 hPa Calm     96% 0.0 mm 0 W/m2
03:45 5.8 °C 5.2 °C 1022.9 hPa Calm     96% 0.0 mm 0 W/m2
03:55 5.9 °C 5.3 °C 1022.9 hPa Calm     96% 0.0 mm 0 W/m2
04:00 6.1 °C 5.5 °C 1022.9 hPa Calm     96% 0.0 mm 0 W/m2
04:05 6.1 °C 5.5 °C 1022.9 hPa Calm     96% 0.0 mm 0 W/m2
04:10 6.2 °C 5.6 °C 1022.9 hPa Calm     96% 0.0 mm 0 W/m2
04:15 6.3 °C 5.7 °C 1022.9 hPa Calm     96% 0.0 mm 0 W/m2
04:20 6.3 °C 5.7 °C 1022.9 hPa Calm     96% 0.0 mm 0 W/m2
04:25 6.4 °C 5.8 °C 1022.9 hPa Calm     96% 0.0 mm 0 W/m2
04:35 6.6 °C 6.0 °C 1022.9 hPa Calm     96% 0.0 mm 0 W/m2
04:40 6.6 °C 6.0 °C 1022.9 hPa Calm     96% 0.0 mm 0 W/m2
04:45 6.7 °C 6.1 °C 1022.9 hPa Calm     96% 0.0 mm 0 W/m2
04:55 6.8 °C 6.2 °C 1023.2 hPa Calm     96% 0.0 mm 0 W/m2
05:05 6.9 °C 6.3 °C 1023.2 hPa Calm     96% 0.0 mm 0 W/m2
05:10 6.9 °C 6.3 °C 1023.2 hPa Calm     96% 0.0 mm 0 W/m2
05:15 6.9 °C 6.3 °C 1023.2 hPa Calm     96% 0.0 mm 0 W/m2
05:20 7.0 °C 6.4 °C 1023.6 hPa Calm     96% 0.0 mm 0 W/m2
05:25 7.1 °C 6.5 °C 1023.6 hPa Calm     96% 0.0 mm 0 W/m2
05:30 7.1 °C 6.5 °C 1023.6 hPa Calm     96% 0.0 mm 0 W/m2
05:35 7.1 °C 6.5 °C 1023.6 hPa Calm     96% 0.0 mm 0 W/m2
05:40 7.1 °C 6.5 °C 1023.6 hPa Calm     96% 0.0 mm 0 W/m2
05:45 7.2 °C 6.6 °C 1023.6 hPa Calm     96% 0.0 mm 0 W/m2
05:50 7.2 °C 6.6 °C 1023.6 hPa Calm     96% 0.0 mm 0 W/m2
05:55 7.2 °C 6.6 °C 1023.6 hPa Calm     96% 0.0 mm 0 W/m2
06:00 7.2 °C 6.6 °C 1023.6 hPa Calm     96% 0.0 mm 0 W/m2
06:10 7.2 °C 6.6 °C 1023.6 hPa Calm     96% 0.0 mm 0 W/m2
06:15 7.3 °C 6.7 °C 1023.6 hPa Calm     96% 0.0 mm 0 W/m2
06:20 7.2 °C 6.6 °C 1023.6 hPa Calm     96% 0.0 mm 0 W/m2
06:25 7.3 °C 6.7 °C 1023.6 hPa Calm     96% 0.0 mm 0 W/m2
06:30 7.3 °C 6.7 °C 1023.9 hPa Calm     96% 0.0 mm 0 W/m2
06:35 7.3 °C 6.7 °C 1023.9 hPa Calm     96% 0.0 mm 0 W/m2
06:40 7.3 °C 6.7 °C 1023.6 hPa Calm     96% 0.0 mm 0 W/m2
06:45 7.3 °C 6.8 °C 1023.9 hPa Calm     97% 0.0 mm 0 W/m2
07:00 7.3 °C 6.8 °C 1023.9 hPa Calm     97% 0.0 mm 0 W/m2
07:05 7.3 °C 6.8 °C 1023.9 hPa Calm     97% 0.0 mm 0 W/m2
07:15 7.4 °C 6.9 °C 1024.3 hPa Calm     97% 0.0 mm 5 W/m2
07:20 7.4 °C 6.9 °C 1024.3 hPa Calm     97% 0.0 mm 9 W/m2
07:25 7.4 °C 6.9 °C 1024.3 hPa Calm     97% 0.0 mm 9 W/m2
07:35 7.4 °C 6.9 °C 1024.6 hPa Calm     97% 0.0 mm 9 W/m2
07:45 7.6 °C 7.2 °C 1024.6 hPa Calm     97% 0.0 mm 19 W/m2
07:55 7.7 °C 7.3 °C 1024.6 hPa Calm     97% 0.0 mm 35 W/m2
08:00 7.7 °C 7.3 °C 1024.9 hPa Calm     97% 0.0 mm 39 W/m2
08:05 7.8 °C 7.3 °C 1024.9 hPa Calm     97% 0.0 mm 33 W/m2
08:15 7.9 °C 7.4 °C 1024.9 hPa Calm     97% 0.0 mm 26 W/m2
08:20 8.0 °C 7.6 °C 1024.9 hPa Calm     97% 0.0 mm 26 W/m2
08:25 8.1 °C 7.7 °C 1024.9 hPa Calm     97% 0.0 mm 26 W/m2
08:30 8.1 °C 7.7 °C 1024.9 hPa Calm     97% 0.0 mm 28 W/m2
08:35 8.2 °C 7.8 °C 1024.9 hPa Calm     97% 0.0 mm 33 W/m2
08:40 8.2 °C 7.8 °C 1024.9 hPa Calm     97% 0.0 mm 39 W/m2
08:45 8.3 °C 7.8 °C 1024.9 hPa Calm     97% 0.0 mm 46 W/m2
08:50 8.3 °C 7.8 °C 1024.9 hPa Calm     97% 0.0 mm 53 W/m2
08:55 8.4 °C 7.9 °C 1024.9 hPa Calm     97% 0.0 mm 60 W/m2
09:00 8.5 °C 8.1 °C 1024.9 hPa Calm     97% 0.0 mm 62 W/m2
09:05 8.6 °C 8.2 °C 1024.9 hPa Calm     97% 0.0 mm 62 W/m2
09:10 8.7 °C 8.3 °C 1024.9 hPa Calm     97% 0.0 mm 60 W/m2
09:15 8.8 °C 8.3 °C 1024.9 hPa Calm     97% 0.0 mm 60 W/m2
09:25 8.8 °C 8.3 °C 1025.3 hPa Calm     97% 0.0 mm 77 W/m2
09:30 8.9 °C 8.4 °C 1025.3 hPa Calm     97% 0.0 mm 88 W/m2
09:35 8.9 °C 8.4 °C 1025.3 hPa Calm     97% 0.0 mm 93 W/m2
09:40 9.1 °C 8.7 °C 1025.3 hPa Calm     97% 0.0 mm 102 W/m2
09:45 9.1 °C 8.7 °C 1025.3 hPa Calm     97% 0.0 mm 105 W/m2
09:50 9.2 °C 8.7 °C 1025.3 hPa Calm     97% 0.0 mm 104 W/m2
09:55 9.3 °C 8.8 °C 1025.3 hPa Calm     97% 0.0 mm 97 W/m2
10:00 9.3 °C 8.8 °C 1025.3 hPa Calm     97% 0.0 mm 86 W/m2
10:05 9.3 °C 8.8 °C 1025.6 hPa Calm     97% 0.0 mm 83 W/m2
10:10 9.4 °C 8.9 °C 1025.6 hPa Calm     97% 0.0 mm 79 W/m2
10:20 9.3 °C 8.7 °C 1025.6 hPa Calm     96% 0.0 mm 109 W/m2
10:25 9.3 °C 8.8 °C 1025.6 hPa Calm     97% 0.0 mm 116 W/m2
10:35 9.6 °C 9.2 °C 1025.6 hPa Calm     97% 0.0 mm 134 W/m2
10:40 9.6 °C 9.2 °C 1025.6 hPa Calm     97% 0.0 mm 137 W/m2
10:50 9.7 °C 9.1 °C 1025.6 hPa Calm     96% 0.0 mm 142 W/m2
10:55 9.7 °C 9.2 °C 1025.6 hPa Calm     97% 0.0 mm 142 W/m2
11:00 9.8 °C 9.2 °C 1025.6 hPa Calm     96% 0.0 mm 144 W/m2
11:05 9.9 °C 9.3 °C 1026.0 hPa Calm     96% 0.0 mm 146 W/m2
11:15 10.2 °C 9.6 °C 1026.0 hPa Calm     96% 0.0 mm 141 W/m2
11:25 10.3 °C 9.7 °C 1025.6 hPa Calm     96% 0.0 mm 146 W/m2
11:35 10.3 °C 9.6 °C 1025.6 hPa West 1.9 km/h 4.8 km/h 95% 0.0 mm 155 W/m2
11:40 10.3 °C 9.6 °C 1025.6 hPa West 0.2 km/h 3.2 km/h 95% 0.0 mm 199 W/m2
11:45 10.4 °C 9.6 °C 1025.6 hPa West 1.0 km/h 4.8 km/h 95% 0.0 mm 230 W/m2
11:55 10.6 °C 9.7 °C 1025.3 hPa Calm     94% 0.0 mm 118 W/m2
12:10 10.8 °C 9.9 °C 1025.6 hPa NW 1.0 km/h 4.8 km/h 94% 0.0 mm 306 W/m2
12:15 10.9 °C 9.8 °C 1025.6 hPa NW 0.2 km/h 1.6 km/h 93% 0.0 mm 297 W/m2
12:20 11.1 °C 10.0 °C 1025.3 hPa NW 0.6 km/h 3.4 km/h 93% 0.0 mm 251 W/m2
12:25 11.2 °C 9.9 °C 1025.6 hPa Calm   1.6 km/h 92% 0.0 mm 288 W/m2
12:30 11.3 °C 10.1 °C 1025.3 hPa NW 2.1 km/h 6.4 km/h 92% 0.0 mm 269 W/m2
12:40 11.6 °C 10.2 °C 1025.3 hPa NW 0.6 km/h 4.8 km/h 91% 0.0 mm 287 W/m2
12:45 11.7 °C 9.9 °C 1025.3 hPa Calm     89% 0.0 mm 255 W/m2
12:55 11.9 °C 9.8 °C 1025.3 hPa NW 2.4 km/h 4.8 km/h 87% 0.0 mm 267 W/m2
13:00 12.0 °C 9.6 °C 1025.3 hPa NW 0.5 km/h 4.8 km/h 85% 0.0 mm 304 W/m2
13:10 12.2 °C 9.2 °C 1024.9 hPa Calm     82% 0.0 mm 355 W/m2
13:15 12.3 °C 9.1 °C 1025.3 hPa Calm     81% 0.0 mm 292 W/m2
13:25 12.6 °C 9.4 °C 1025.3 hPa NW 0.2 km/h 3.2 km/h 81% 0.0 mm 292 W/m2
13:30 12.7 °C 9.5 °C 1024.9 hPa Calm     81% 0.0 mm 292 W/m2
13:35 12.8 °C 9.6 °C 1024.9 hPa Calm     81% 0.0 mm 232 W/m2
13:45 13.1 °C 10.1 °C 1024.9 hPa ENE 0.2 km/h 1.6 km/h 82% 0.0 mm 234 W/m2
13:50 13.2 °C 10.2 °C 1024.9 hPa Calm   1.6 km/h 82% 0.0 mm 213 W/m2
14:00 13.3 °C 10.1 °C 1024.9 hPa Calm     81% 0.0 mm 235 W/m2
14:05 13.4 °C 10.2 °C 1024.9 hPa Calm     81% 0.0 mm 165 W/m2
14:10 13.4 °C 10.0 °C 1024.9 hPa Calm   1.6 km/h 80% 0.0 mm 72 W/m2
14:15 13.3 °C 9.7 °C 1024.9 hPa NNW 1.1 km/h 6.4 km/h 79% 0.0 mm 257 W/m2
14:25 13.2 °C 8.9 °C 1024.9 hPa Calm     75% 0.0 mm 234 W/m2
14:30 13.2 °C 8.9 °C 1024.9 hPa NNW 0.5 km/h 3.2 km/h 75% 0.0 mm 135 W/m2
14:35 13.2 °C 8.9 °C 1024.9 hPa NNW 1.3 km/h 4.8 km/h 75% 0.0 mm 230 W/m2
14:45 13.2 °C 9.1 °C 1024.9 hPa NNW 1.0 km/h 4.8 km/h 76% 0.0 mm 195 W/m2
14:55 13.2 °C 9.1 °C 1024.9 hPa Calm     76% 0.0 mm 190 W/m2
15:00 13.2 °C 9.1 °C 1024.9 hPa Calm     76% 0.0 mm 164 W/m2
15:05 13.2 °C 9.1 °C 1024.9 hPa Calm     76% 0.0 mm 56 W/m2
15:10 13.2 °C 9.1 °C 1024.9 hPa Calm     76% 0.0 mm 56 W/m2
15:15 13.2 °C 9.4 °C 1024.9 hPa Calm     78% 0.0 mm 58 W/m2
15:25 13.2 °C 9.4 °C 1024.9 hPa Calm     78% 0.0 mm 51 W/m2
15:35 13.2 °C 9.6 °C 1024.9 hPa Calm     79% 0.0 mm 49 W/m2
15:40 13.1 °C 9.7 °C 1024.9 hPa Calm     80% 0.0 mm 47 W/m2
15:45 13.1 °C 9.7 °C 1024.9 hPa Calm     80% 0.0 mm 46 W/m2
15:50 13.1 °C 9.7 °C 1024.9 hPa Calm     80% 0.0 mm 46 W/m2
15:55 13.0 °C 9.6 °C 1024.9 hPa Calm     80% 0.0 mm 42 W/m2
16:00 12.9 °C 9.6 °C 1024.9 hPa Calm     80% 0.0 mm 40 W/m2
16:05 12.9 °C 9.7 °C 1024.9 hPa Calm     81% 0.0 mm 40 W/m2
16:10 12.8 °C 9.6 °C 1024.9 hPa Calm     81% 0.0 mm 40 W/m2
16:20 12.7 °C 9.5 °C 1024.9 hPa Calm     81% 0.0 mm 39 W/m2
16:25 12.6 °C 9.6 °C 1024.9 hPa Calm     82% 0.0 mm 35 W/m2
16:30 12.6 °C 9.6 °C 1024.9 hPa Calm     82% 0.0 mm 33 W/m2
16:35 12.5 °C 9.5 °C 1024.9 hPa Calm     82% 0.0 mm 28 W/m2
16:40 12.4 °C 9.4 °C 1025.3 hPa Calm     82% 0.0 mm 26 W/m2
16:50 12.2 °C 9.4 °C 1025.3 hPa Calm     83% 0.0 mm 19 W/m2
Tägerwilen, Thurgau, Switzerland
Compliments of Weather Underground